sensor_id;sensor_type;location;lat;lon;timestamp;pressure;altitude;pressure_sealevel;temperature;humidity
7058;BME280;3570;43.080;25.628;2022-08-20T00:02:21;-20163.78;;;24.50;89.78
7058;BME280;3570;43.080;25.628;2022-08-20T00:05:05;-20165.09;;;24.54;90.62
7058;BME280;3570;43.080;25.628;2022-08-20T00:07:49;-20169.00;;;24.68;90.16
7058;BME280;3570;43.080;25.628;2022-08-20T00:10:36;-20165.66;;;24.56;90.45
7058;BME280;3570;43.080;25.628;2022-08-20T00:13:26;-20151.81;;;24.08;92.13
7058;BME280;3570;43.080;25.628;2022-08-20T00:16:11;-20144.28;;;23.82;95.05
7058;BME280;3570;43.080;25.628;2022-08-20T00:18:55;-20134.63;;;23.48;96.03
7058;BME280;3570;43.080;25.628;2022-08-20T00:21:39;-20127.53;;;23.23;99.40
7058;BME280;3570;43.080;25.628;2022-08-20T00:24:24;-20117.13;;;22.87;100.00
7058;BME280;3570;43.080;25.628;2022-08-20T00:27:08;-20124.78;;;23.14;100.00
7058;BME280;3570;43.080;25.628;2022-08-20T00:29:52;-20145.31;;;23.85;98.61
7058;BME280;3570;43.080;25.628;2022-08-20T00:32:43;-20157.28;;;24.27;95.70
7058;BME280;3570;43.080;25.628;2022-08-20T00:35:30;-20163.66;;;24.49;94.14
7058;BME280;3570;43.080;25.628;2022-08-20T00:38:15;-20154.84;;;24.18;94.80
7058;BME280;3570;43.080;25.628;2022-08-20T00:40:59;-20143.56;;;23.79;97.28
7058;BME280;3570;43.080;25.628;2022-08-20T00:44:11;-20138.22;;;23.61;98.63
7058;BME280;3570;43.080;25.628;2022-08-20T00:46:56;-20126.09;;;23.18;100.00
7058;BME280;3570;43.080;25.628;2022-08-20T00:49:40;-20123.47;;;23.09;100.00
7058;BME280;3570;43.080;25.628;2022-08-20T00:52:24;-20137.22;;;23.57;99.99
7058;BME280;3570;43.080;25.628;2022-08-20T00:55:09;-20139.66;;;23.66;99.09
7058;BME280;3570;43.080;25.628;2022-08-20T00:57:58;-20136.78;;;23.56;99.62
7058;BME280;3570;43.080;25.628;2022-08-20T01:00:45;-20134.47;;;23.48;99.58
7058;BME280;3570;43.080;25.628;2022-08-20T01:03:30;-20145.88;;;23.87;97.58
7058;BME280;3570;43.080;25.628;2022-08-20T01:06:14;-20151.81;;;24.08;96.48
7058;BME280;3570;43.080;25.628;2022-08-20T01:08:58;-20150.38;;;24.03;96.49
7058;BME280;3570;43.080;25.628;2022-08-20T01:11:45;-20151.66;;;24.07;96.20
7058;BME280;3570;43.080;25.628;2022-08-20T01:14:29;-20148.19;;;23.95;96.04
7058;BME280;3570;43.080;25.628;2022-08-20T01:17:20;-20151.53;;;24.07;95.73
7058;BME280;3570;43.080;25.628;2022-08-20T01:20:16;-20155.84;;;24.22;95.13
7058;BME280;3570;43.080;25.628;2022-08-20T01:26:13;-20150.66;;;24.04;95.36
7058;BME280;3570;43.080;25.628;2022-08-20T01:29:06;-20141.69;;;23.73;97.81
7058;BME280;3570;43.080;25.628;2022-08-20T01:31:51;-20141.41;;;23.72;98.23
7058;BME280;3570;43.080;25.628;2022-08-20T01:34:35;-20149.06;;;23.98;96.36
7058;BME280;3570;43.080;25.628;2022-08-20T01:37:19;-20146.31;;;23.89;95.76
7058;BME280;3570;43.080;25.628;2022-08-20T01:40:10;-20156.13;;;24.23;95.02
7058;BME280;3570;43.080;25.628;2022-08-20T01:42:59;-20160.03;;;24.37;94.59
7058;BME280;3570;43.080;25.628;2022-08-20T01:45:43;-20161.91;;;24.43;93.34
7058;BME280;3570;43.080;25.628;2022-08-20T01:48:28;-20160.31;;;24.38;94.01
7058;BME280;3570;43.080;25.628;2022-08-20T01:51:16;-20152.97;;;24.12;94.27
7058;BME280;3570;43.080;25.628;2022-08-20T01:54:00;-20154.41;;;24.17;94.27
7058;BME280;3570;43.080;25.628;2022-08-20T01:59:38;-20142.28;;;23.75;96.30
7058;BME280;3570;43.080;25.628;2022-08-20T02:02:24;-20144.44;;;23.82;96.67
7058;BME280;3570;43.080;25.628;2022-08-20T02:05:08;-20147.19;;;23.92;96.23
7058;BME280;3570;43.080;25.628;2022-08-20T02:07:53;-20150.66;;;24.04;95.69
7058;BME280;3570;43.080;25.628;2022-08-20T02:10:38;-20147.19;;;23.92;95.30
7058;BME280;3570;43.080;25.628;2022-08-20T02:13:23;-20149.22;;;23.99;95.70
7058;BME280;3570;43.080;25.628;2022-08-20T02:16:07;-20153.25;;;24.13;94.97
7058;BME280;3570;43.080;25.628;2022-08-20T02:18:53;-20154.41;;;24.17;94.68
7058;BME280;3570;43.080;25.628;2022-08-20T02:21:49;-20141.41;;;23.72;96.78
7058;BME280;3570;43.080;25.628;2022-08-20T02:24:33;-20130.84;;;23.35;98.30
7058;BME280;3570;43.080;25.628;2022-08-20T02:27:18;-20119.44;;;22.95;100.00
7058;BME280;3570;43.080;25.628;2022-08-20T02:30:06;-20104.25;;;22.42;100.00
7058;BME280;3570;43.080;25.628;2022-08-20T02:32:58;-20106.13;;;22.49;100.00
7058;BME280;3570;43.080;25.628;2022-08-20T02:35:45;-20110.91;;;22.66;100.00
7058;BME280;3570;43.080;25.628;2022-08-20T02:38:30;-20104.38;;;22.43;100.00
7058;BME280;3570;43.080;25.628;2022-08-20T02:41:17;-20102.22;;;22.35;100.00
7058;BME280;3570;43.080;25.628;2022-08-20T02:44:05;-20111.91;;;22.69;100.00
7058;BME280;3570;43.080;25.628;2022-08-20T02:46:49;-20114.81;;;22.79;100.00
7058;BME280;3570;43.080;25.628;2022-08-20T02:49:33;-20107.00;;;22.52;100.00
7058;BME280;3570;43.080;25.628;2022-08-20T02:52:18;-20111.78;;;22.69;100.00
7058;BME280;3570;43.080;25.628;2022-08-20T02:55:03;-20122.63;;;23.06;100.00
7058;BME280;3570;43.080;25.628;2022-08-20T02:57:51;-20123.78;;;23.10;100.00
7058;BME280;3570;43.080;25.628;2022-08-20T03:00:36;-20108.44;;;22.57;100.00
7058;BME280;3570;43.080;25.628;2022-08-20T03:03:21;-20089.34;;;21.91;100.00
7058;BME280;3570;43.080;25.628;2022-08-20T03:06:08;-20073.72;;;21.36;100.00
7058;BME280;3570;43.080;25.628;2022-08-20T03:08:53;-20081.38;;;21.63;100.00
7058;BME280;3570;43.080;25.628;2022-08-20T03:11:37;-20095.84;;;22.13;100.00
7058;BME280;3570;43.080;25.628;2022-08-20T03:14:22;-20091.66;;;21.99;100.00
7058;BME280;3570;43.080;25.628;2022-08-20T03:17:07;-20104.38;;;22.43;100.00
7058;BME280;3570;43.080;25.628;2022-08-20T03:19:51;-20118.84;;;22.93;100.00
7058;BME280;3570;43.080;25.628;2022-08-20T03:22:35;-20129.69;;;23.31;100.00
7058;BME280;3570;43.080;25.628;2022-08-20T03:25:19;-20131.28;;;23.37;100.00
7058;BME280;3570;43.080;25.628;2022-08-20T03:28:03;-20136.22;;;23.54;100.00
7058;BME280;3570;43.080;25.628;2022-08-20T03:30:48;-20139.97;;;23.67;100.00
7058;BME280;3570;43.080;25.628;2022-08-20T03:33:34;-20144.59;;;23.83;100.00
7058;BME280;3570;43.080;25.628;2022-08-20T03:36:18;-20137.38;;;23.58;100.00
7058;BME280;3570;43.080;25.628;2022-08-20T03:39:05;-20133.31;;;23.44;100.00
7058;BME280;3570;43.080;25.628;2022-08-20T03:41:50;-20130.84;;;23.35;100.00
7058;BME280;3570;43.080;25.628;2022-08-20T03:44:34;-20127.38;;;23.23;100.00
7058;BME280;3570;43.080;25.628;2022-08-20T03:47:19;-20132.16;;;23.40;100.00
7058;BME280;3570;43.080;25.628;2022-08-20T03:50:06;-20133.16;;;23.43;100.00
7058;BME280;3570;43.080;25.628;2022-08-20T03:52:51;-20129.13;;;23.29;100.00
7058;BME280;3570;43.080;25.628;2022-08-20T03:55:35;-20141.41;;;23.72;100.00
7058;BME280;3570;43.080;25.628;2022-08-20T03:58:19;-20148.34;;;23.96;100.00
7058;BME280;3570;43.080;25.628;2022-08-20T04:01:05;-20147.75;;;23.94;100.00
7058;BME280;3570;43.080;25.628;2022-08-20T04:03:49;-20149.78;;;24.01;100.00
7058;BME280;3570;43.080;25.628;2022-08-20T04:06:33;-20152.09;;;24.09;100.00
7058;BME280;3570;43.080;25.628;2022-08-20T04:09:18;-20145.16;;;23.85;100.00
7058;BME280;3570;43.080;25.628;2022-08-20T04:12:02;-20154.56;;;24.17;99.72
7058;BME280;3570;43.080;25.628;2022-08-20T04:14:47;-20152.09;;;24.09;100.00
7058;BME280;3570;43.080;25.628;2022-08-20T04:17:32;-20157.00;;;24.26;99.22
7058;BME280;3570;43.080;25.628;2022-08-20T04:20:20;-20157.88;;;24.29;98.42
7058;BME280;3570;43.080;25.628;2022-08-20T04:23:06;-20155.56;;;24.21;99.10
7058;BME280;3570;43.080;25.628;2022-08-20T04:25:51;-20158.31;;;24.31;98.50
7058;BME280;3570;43.080;25.628;2022-08-20T04:28:35;-20157.28;;;24.27;97.11
7058;BME280;3570;43.080;25.628;2022-08-20T04:31:19;-20158.44;;;24.31;98.19
7058;BME280;3570;43.080;25.628;2022-08-20T04:34:04;-20152.38;;;24.10;98.83
7058;BME280;3570;43.080;25.628;2022-08-20T04:36:50;-20145.31;;;23.85;100.00
7058;BME280;3570;43.080;25.628;2022-08-20T04:39:34;-20143.28;;;23.78;100.00
7058;BME280;3570;43.080;25.628;2022-08-20T04:42:18;-20134.47;;;23.48;100.00
7058;BME280;3570;43.080;25.628;2022-08-20T04:45:04;-20126.94;;;23.21;100.00
7058;BME280;3570;43.080;25.628;2022-08-20T04:47:49;-20129.25;;;23.29;100.00
7058;BME280;3570;43.080;25.628;2022-08-20T04:50:36;-20139.53;;;23.65;100.00
7058;BME280;3570;43.080;25.628;2022-08-20T04:53:22;-20154.69;;;24.18;100.00
7058;BME280;3570;43.080;25.628;2022-08-20T04:56:08;-20150.38;;;24.03;100.00
7058;BME280;3570;43.080;25.628;2022-08-20T04:58:55;-20156.44;;;24.24;99.38
7058;BME280;3570;43.080;25.628;2022-08-20T05:01:39;-20165.97;;;24.57;97.41
7058;BME280;3570;43.080;25.628;2022-08-20T05:04:23;-20166.25;;;24.58;95.90
7058;BME280;3570;43.080;25.628;2022-08-20T05:07:10;-20176.63;;;24.94;94.68
7058;BME280;3570;43.080;25.628;2022-08-20T05:09:55;-20176.94;;;24.95;94.19
7058;BME280;3570;43.080;25.628;2022-08-20T05:12:42;-20180.97;;;25.09;94.05
7058;BME280;3570;43.080;25.628;2022-08-20T05:15:26;-20178.94;;;25.02;93.14
7058;BME280;3570;43.080;25.628;2022-08-20T05:18:11;-20184.28;;;25.21;93.08
7058;BME280;3570;43.080;25.628;2022-08-20T05:20:55;-20184.88;;;25.23;92.82
7058;BME280;3570;43.080;25.628;2022-08-20T05:23:44;-20188.19;;;25.35;91.95
7058;BME280;3570;43.080;25.628;2022-08-20T05:26:28;-20192.22;;;25.49;91.49
7058;BME280;3570;43.080;25.628;2022-08-20T05:29:12;-20194.25;;;25.56;90.96
7058;BME280;3570;43.080;25.628;2022-08-20T05:31:56;-20197.00;;;25.65;89.46
7058;BME280;3570;43.080;25.628;2022-08-20T05:34:40;-20202.03;;;25.83;88.84
7058;BME280;3570;43.080;25.628;2022-08-20T05:37:26;-20208.53;;;26.05;88.04
7058;BME280;3570;43.080;25.628;2022-08-20T05:40:13;-20207.66;;;26.02;87.77
7058;BME280;3570;43.080;25.628;2022-08-20T05:42:57;-20198.88;;;25.72;88.75
7058;BME280;3570;43.080;25.628;2022-08-20T05:45:42;-20181.25;;;25.10;91.30
7058;BME280;3570;43.080;25.628;2022-08-20T05:48:27;-20182.13;;;25.13;92.73
7058;BME280;3570;43.080;25.628;2022-08-20T05:51:12;-20195.97;;;25.62;90.39
7058;BME280;3570;43.080;25.628;2022-08-20T05:53:56;-20197.41;;;25.67;89.29
7058;BME280;3570;43.080;25.628;2022-08-20T05:56:40;-20202.91;;;25.86;88.23
7058;BME280;3570;43.080;25.628;2022-08-20T05:59:25;-20211.41;;;26.16;86.41
7058;BME280;3570;43.080;25.628;2022-08-20T06:02:10;-20215.88;;;26.31;85.73
7058;BME280;3570;43.080;25.628;2022-08-20T06:05:13;-20218.31;;;26.40;84.75
7058;BME280;3570;43.080;25.628;2022-08-20T06:07:57;-20218.47;;;26.40;84.68
7058;BME280;3570;43.080;25.628;2022-08-20T06:10:41;-20223.06;;;26.56;84.34
7058;BME280;3570;43.080;25.628;2022-08-20T06:13:27;-20228.41;;;26.75;82.66
7058;BME280;3570;43.080;25.628;2022-08-20T06:16:12;-20238.22;;;27.09;80.60
7058;BME280;3570;43.080;25.628;2022-08-20T06:18:56;-20243.25;;;27.27;79.88
7058;BME280;3570;43.080;25.628;2022-08-20T06:21:40;-20239.06;;;27.12;79.81
7058;BME280;3570;43.080;25.628;2022-08-20T06:24:24;-20247.00;;;27.40;79.30
7058;BME280;3570;43.080;25.628;2022-08-20T06:27:12;-20252.59;;;27.59;78.79
7058;BME280;3570;43.080;25.628;2022-08-20T06:29:57;-20252.47;;;27.59;78.72
7058;BME280;3570;43.080;25.628;2022-08-20T06:32:41;-20262.84;;;27.95;76.97
7058;BME280;3570;43.080;25.628;2022-08-20T06:35:25;-20268.00;;;28.13;75.99
7058;BME280;3570;43.080;25.628;2022-08-20T06:38:11;-20276.63;;;28.43;74.61
7058;BME280;3570;43.080;25.628;2022-08-20T06:40:55;-20282.09;;;28.62;73.66
7058;BME280;3570;43.080;25.628;2022-08-20T06:43:39;-20287.84;;;28.83;71.97
7058;BME280;3570;43.080;25.628;2022-08-20T06:46:24;-20294.19;;;29.05;71.19
7058;BME280;3570;43.080;25.628;2022-08-20T06:49:08;-20296.47;;;29.13;73.09
7058;BME280;3570;43.080;25.628;2022-08-20T06:51:52;-20302.22;;;29.33;71.73
7058;BME280;3570;43.080;25.628;2022-08-20T06:54:36;-20307.13;;;29.50;70.09
7058;BME280;3570;43.080;25.628;2022-08-20T06:57:20;-20304.66;;;29.41;69.52
7058;BME280;3570;43.080;25.628;2022-08-20T07:00:07;-20319.91;;;29.95;68.10
7058;BME280;3570;43.080;25.628;2022-08-20T07:02:52;-20331.09;;;30.34;65.09
7058;BME280;3570;43.080;25.628;2022-08-20T07:05:39;-20335.53;;;30.49;63.42
7058;BME280;3570;43.080;25.628;2022-08-20T07:08:25;-20344.44;;;30.81;62.63
7058;BME280;3570;43.080;25.628;2022-08-20T07:11:09;-20353.47;;;31.12;61.64
7058;BME280;3570;43.080;25.628;2022-08-20T07:13:56;-20349.59;;;30.99;61.76
7058;BME280;3570;43.080;25.628;2022-08-20T07:16:41;-20361.50;;;31.40;59.73
7058;BME280;3570;43.080;25.628;2022-08-20T07:19:26;-20366.09;;;31.57;57.63
7058;BME280;3570;43.080;25.628;2022-08-20T07:22:10;-20374.25;;;31.85;56.02
7058;BME280;3570;43.080;25.628;2022-08-20T07:24:56;-20379.13;;;32.02;53.10
7058;BME280;3570;43.080;25.628;2022-08-20T07:27:41;-20376.00;;;31.91;54.22
7058;BME280;3570;43.080;25.628;2022-08-20T07:30:26;-20384.00;;;32.19;53.80
7058;BME280;3570;43.080;25.628;2022-08-20T07:33:29;-20382.72;;;32.15;53.15
7058;BME280;3570;43.080;25.628;2022-08-20T07:36:14;-20395.31;;;32.59;52.42
7058;BME280;3570;43.080;25.628;2022-08-20T07:38:59;-20400.75;;;32.78;50.45
7058;BME280;3570;43.080;25.628;2022-08-20T07:41:44;-20406.91;;;33.00;49.56
7058;BME280;3570;43.080;25.628;2022-08-20T07:44:45;-20413.50;;;33.23;48.95
7058;BME280;3570;43.080;25.628;2022-08-20T07:47:29;-20417.66;;;33.38;45.95
7058;BME280;3570;43.080;25.628;2022-08-20T07:50:16;-20423.81;;;33.59;46.85
7058;BME280;3570;43.080;25.628;2022-08-20T07:53:02;-20425.53;;;33.65;44.95
7058;BME280;3570;43.080;25.628;2022-08-20T07:55:46;-20412.94;;;33.21;44.00
7058;BME280;3570;43.080;25.628;2022-08-20T07:58:31;-20414.22;;;33.25;45.27
7058;BME280;3570;43.080;25.628;2022-08-20T08:01:26;-20421.38;;;33.51;43.57
7058;BME280;3570;43.080;25.628;2022-08-20T08:04:12;-20431.25;;;33.85;44.10
7058;BME280;3570;43.080;25.628;2022-08-20T08:06:56;-20438.53;;;34.11;42.58
7058;BME280;3570;43.080;25.628;2022-08-20T08:09:43;-20425.22;;;33.64;43.19
7058;BME280;3570;43.080;25.628;2022-08-20T08:12:37;-20434.81;;;33.98;43.45
7058;BME280;3570;43.080;25.628;2022-08-20T08:15:25;-20443.53;;;34.29;42.58
7058;BME280;3570;43.080;25.628;2022-08-20T08:18:13;-20454.09;;;34.66;43.24
7058;BME280;3570;43.080;25.628;2022-08-20T08:20:59;-20461.25;;;34.91;41.55
7058;BME280;3570;43.080;25.628;2022-08-20T08:23:43;-20466.38;;;35.09;39.91
7058;BME280;3570;43.080;25.628;2022-08-20T08:26:27;-20473.66;;;35.35;39.92
7058;BME280;3570;43.080;25.628;2022-08-20T08:29:11;-20480.25;;;35.58;39.24
7058;BME280;3570;43.080;25.628;2022-08-20T08:31:56;-20483.94;;;35.71;38.28
7058;BME280;3570;43.080;25.628;2022-08-20T08:34:40;-20489.50;;;35.90;37.49
7058;BME280;3570;43.080;25.628;2022-08-20T08:37:24;-20488.22;;;35.86;37.45
7058;BME280;3570;43.080;25.628;2022-08-20T08:40:08;-20479.53;;;35.55;37.84
7058;BME280;3570;43.080;25.628;2022-08-20T08:42:54;-20484.81;;;35.74;37.64
7058;BME280;3570;43.080;25.628;2022-08-20T08:45:43;-20492.38;;;36.01;37.24
7058;BME280;3570;43.080;25.628;2022-08-20T08:48:40;-20492.50;;;36.01;36.39
7058;BME280;3570;43.080;25.628;2022-08-20T08:51:36;-20491.66;;;35.98;36.34
7058;BME280;3570;43.080;25.628;2022-08-20T08:54:24;-20494.66;;;36.09;36.33
7058;BME280;3570;43.080;25.628;2022-08-20T08:57:11;-20496.78;;;36.16;35.65
7058;BME280;3570;43.080;25.628;2022-08-20T08:59:58;-20495.22;;;36.11;36.22
7058;BME280;3570;43.080;25.628;2022-08-20T09:03:03;-20505.06;;;36.45;35.00
7058;BME280;3570;43.080;25.628;2022-08-20T09:05:52;-20501.91;;;36.34;34.70
7058;BME280;3570;43.080;25.628;2022-08-20T09:08:52;-20502.91;;;36.38;34.82
7058;BME280;3570;43.080;25.628;2022-08-20T09:11:47;-20520.03;;;36.98;34.24
7058;BME280;3570;43.080;25.628;2022-08-20T09:14:32;-20530.41;;;37.35;33.17
7058;BME280;3570;43.080;25.628;2022-08-20T09:17:18;-20552.75;;;38.14;31.94
7058;BME280;3570;43.080;25.628;2022-08-20T09:20:02;-20526.84;;;37.22;32.50
7058;BME280;3570;43.080;25.628;2022-08-20T09:22:47;-20511.91;;;36.69;34.12
7058;BME280;3570;43.080;25.628;2022-08-20T09:25:32;-20546.06;;;37.90;32.54
7058;BME280;3570;43.080;25.628;2022-08-20T09:28:16;-20587.88;;;39.38;29.79
7058;BME280;3570;43.080;25.628;2022-08-20T09:31:01;-20587.03;;;39.35;29.47
7058;BME280;3570;43.080;25.628;2022-08-20T09:33:45;-20577.38;;;39.01;30.52
7058;BME280;3570;43.080;25.628;2022-08-20T09:36:30;-20598.53;;;39.76;29.79
7058;BME280;3570;43.080;25.628;2022-08-20T09:39:14;-20611.72;;;40.22;28.72
7058;BME280;3570;43.080;25.628;2022-08-20T09:42:13;-20607.03;;;40.06;29.09
7058;BME280;3570;43.080;25.628;2022-08-20T09:44:58;-20594.84;;;39.63;29.62
7058;BME280;3570;43.080;25.628;2022-08-20T09:47:43;-20594.28;;;39.61;29.55
7058;BME280;3570;43.080;25.628;2022-08-20T09:50:30;-20621.94;;;40.59;28.07
7058;BME280;3570;43.080;25.628;2022-08-20T09:53:14;-20649.56;;;41.57;26.92
7058;BME280;3570;43.080;25.628;2022-08-20T09:56:00;-20676.47;;;42.52;25.91
7058;BME280;3570;43.080;25.628;2022-08-20T09:58:50;-20689.22;;;42.97;25.30
7058;BME280;3570;43.080;25.628;2022-08-20T10:01:36;-20705.59;;;43.56;24.31
7058;BME280;3570;43.080;25.628;2022-08-20T10:04:20;-20720.28;;;44.08;23.75
7058;BME280;3570;43.080;25.628;2022-08-20T10:07:07;-20747.94;;;45.07;22.93
7058;BME280;3570;43.080;25.628;2022-08-20T10:09:51;-20716.34;;;43.94;24.47
7058;BME280;3570;43.080;25.628;2022-08-20T10:12:35;-20716.34;;;43.94;23.96
7058;BME280;3570;43.080;25.628;2022-08-20T10:15:20;-20686.66;;;42.88;24.29
7058;BME280;3570;43.080;25.628;2022-08-20T10:18:04;-20622.50;;;40.61;27.08
7058;BME280;3570;43.080;25.628;2022-08-20T10:20:50;-20590.84;;;39.48;28.50
7058;BME280;3570;43.080;25.628;2022-08-20T10:23:34;-20587.44;;;39.36;28.99
7058;BME280;3570;43.080;25.628;2022-08-20T10:26:18;-20601.66;;;39.87;28.50
7058;BME280;3570;43.080;25.628;2022-08-20T10:29:02;-20641.66;;;41.29;27.10
7058;BME280;3570;43.080;25.628;2022-08-20T10:31:45;-20678.75;;;42.60;25.09
7058;BME280;3570;43.080;25.628;2022-08-20T10:34:29;-20688.66;;;42.95;24.16
7058;BME280;3570;43.080;25.628;2022-08-20T10:37:15;-20732.44;;;44.51;23.07
7058;BME280;3570;43.080;25.628;2022-08-20T10:39:59;-20741.47;;;44.84;22.70
7058;BME280;3570;43.080;25.628;2022-08-20T10:42:43;-20717.47;;;43.98;23.01
7058;BME280;3570;43.080;25.628;2022-08-20T10:45:28;-20716.34;;;43.94;22.70
7058;BME280;3570;43.080;25.628;2022-08-20T10:48:12;-20696.00;;;43.22;23.75
7058;BME280;3570;43.080;25.628;2022-08-20T10:50:56;-20657.50;;;41.85;25.03
7058;BME280;3570;43.080;25.628;2022-08-20T10:53:40;-20628.03;;;40.80;26.27
7058;BME280;3570;43.080;25.628;2022-08-20T10:56:24;-20626.47;;;40.75;26.58
7058;BME280;3570;43.080;25.628;2022-08-20T10:59:07;-20654.97;;;41.76;25.86
7058;BME280;3570;43.080;25.628;2022-08-20T11:01:51;-20696.00;;;43.22;24.42
7058;BME280;3570;43.080;25.628;2022-08-20T11:04:35;-20719.03;;;44.04;23.20
7058;BME280;3570;43.080;25.628;2022-08-20T11:07:27;-20729.34;;;44.40;22.83
7058;BME280;3570;43.080;25.628;2022-08-20T11:10:11;-20773.59;;;45.98;21.60
7058;BME280;3570;43.080;25.628;2022-08-20T11:12:56;-20797.94;;;46.85;21.00
7058;BME280;3570;43.080;25.628;2022-08-20T11:15:41;-20775.56;;;46.05;21.37
7058;BME280;3570;43.080;25.628;2022-08-20T11:18:26;-20727.78;;;44.35;22.53
7058;BME280;3570;43.080;25.628;2022-08-20T11:21:10;-20675.78;;;42.50;24.64
7058;BME280;3570;43.080;25.628;2022-08-20T11:23:54;-20631.72;;;40.93;26.46
7058;BME280;3570;43.080;25.628;2022-08-20T11:26:38;-20616.28;;;40.39;27.83
7058;BME280;3570;43.080;25.628;2022-08-20T11:29:22;-20633.28;;;40.99;26.75
7058;BME280;3570;43.080;25.628;2022-08-20T11:32:07;-20678.47;;;42.59;25.17
7058;BME280;3570;43.080;25.628;2022-08-20T11:34:51;-20729.59;;;44.41;23.23
7058;BME280;3570;43.080;25.628;2022-08-20T11:37:35;-20751.91;;;45.21;22.13
7058;BME280;3570;43.080;25.628;2022-08-20T11:40:20;-20769.66;;;45.84;22.16
7058;BME280;3570;43.080;25.628;2022-08-20T11:43:04;-20793.72;;;46.70;21.07
7058;BME280;3570;43.080;25.628;2022-08-20T11:45:54;-20806.22;;;47.15;20.33
7058;BME280;3570;43.080;25.628;2022-08-20T11:48:39;-20799.75;;;46.92;20.38
7058;BME280;3570;43.080;25.628;2022-08-20T11:51:23;-20793.28;;;46.69;20.61
7058;BME280;3570;43.080;25.628;2022-08-20T11:54:07;-20800.88;;;46.96;20.28
7058;BME280;3570;43.080;25.628;2022-08-20T11:56:52;-20791.03;;;46.61;21.20
7058;BME280;3570;43.080;25.628;2022-08-20T11:59:36;-20809.88;;;47.28;20.77
7058;BME280;3570;43.080;25.628;2022-08-20T12:02:20;-20796.94;;;46.82;20.62
7058;BME280;3570;43.080;25.628;2022-08-20T12:05:05;-20804.00;;;47.07;20.85
7058;BME280;3570;43.080;25.628;2022-08-20T12:07:49;-20805.13;;;47.11;20.37
7058;BME280;3570;43.080;25.628;2022-08-20T12:10:33;-20788.22;;;46.50;20.27
7058;BME280;3570;43.080;25.628;2022-08-20T12:13:17;-20809.03;;;47.25;19.73
7058;BME280;3570;43.080;25.628;2022-08-20T12:16:02;-20809.31;;;47.26;19.89
7058;BME280;3570;43.080;25.628;2022-08-20T12:18:46;-20761.63;;;45.55;21.52
7058;BME280;3570;43.080;25.628;2022-08-20T12:21:31;-20689.91;;;43.00;24.11
7058;BME280;3570;43.080;25.628;2022-08-20T12:24:15;-20645.06;;;41.41;25.46
7058;BME280;3570;43.080;25.628;2022-08-20T12:29:56;-20772.75;;;45.95;21.59
7058;BME280;3570;43.080;25.628;2022-08-20T12:32:40;-20799.34;;;46.90;20.83
7058;BME280;3570;43.080;25.628;2022-08-20T12:35:25;-20784.84;;;46.38;21.41
7058;BME280;3570;43.080;25.628;2022-08-20T12:38:09;-20797.78;;;46.85;20.44
7058;BME280;3570;43.080;25.628;2022-08-20T12:40:53;-20810.88;;;47.31;20.14
7058;BME280;3570;43.080;25.628;2022-08-20T12:43:37;-20818.47;;;47.59;20.09
7058;BME280;3570;43.080;25.628;2022-08-20T12:46:21;-20804.56;;;47.09;20.22
7058;BME280;3570;43.080;25.628;2022-08-20T12:49:05;-20802.31;;;47.01;20.53
7058;BME280;3570;43.080;25.628;2022-08-20T12:51:48;-20774.72;;;46.02;20.95
7058;BME280;3570;43.080;25.628;2022-08-20T12:54:33;-20794.69;;;46.74;20.81
7058;BME280;3570;43.080;25.628;2022-08-20T12:57:29;-20820.44;;;47.66;19.30
7058;BME280;3570;43.080;25.628;2022-08-20T13:00:18;-20836.56;;;48.23;19.61
7058;BME280;3570;43.080;25.628;2022-08-20T13:03:05;-20858.47;;;49.02;18.59
7058;BME280;3570;43.080;25.628;2022-08-20T13:05:49;-20874.72;;;49.60;18.08
7058;BME280;3570;43.080;25.628;2022-08-20T13:08:33;-20868.84;;;49.39;18.13
7058;BME280;3570;43.080;25.628;2022-08-20T13:11:17;-20873.31;;;49.55;18.65
7058;BME280;3570;43.080;25.628;2022-08-20T13:14:01;-20829.56;;;47.98;19.18
7058;BME280;3570;43.080;25.628;2022-08-20T13:16:46;-20760.91;;;45.53;21.83
7058;BME280;3570;43.080;25.628;2022-08-20T13:19:31;-20747.38;;;45.05;22.07
7058;BME280;3570;43.080;25.628;2022-08-20T13:22:15;-20779.50;;;46.19;20.79
7058;BME280;3570;43.080;25.628;2022-08-20T13:24:59;-20809.31;;;47.26;20.11
7058;BME280;3570;43.080;25.628;2022-08-20T13:27:43;-20824.91;;;47.82;19.70
7058;BME280;3570;43.080;25.628;2022-08-20T13:30:27;-20846.81;;;48.60;19.46
7058;BME280;3570;43.080;25.628;2022-08-20T13:33:12;-20832.94;;;48.10;19.38
7058;BME280;3570;43.080;25.628;2022-08-20T13:35:56;-20764.56;;;45.66;20.67
7058;BME280;3570;43.080;25.628;2022-08-20T13:38:41;-20694.84;;;43.18;23.15
7058;BME280;3570;43.080;25.628;2022-08-20T13:41:25;-20662.91;;;42.04;24.55
7058;BME280;3570;43.080;25.628;2022-08-20T13:44:09;-20633.72;;;41.00;25.21
7058;BME280;3570;43.080;25.628;2022-08-20T13:46:53;-20652.84;;;41.68;24.91
7058;BME280;3570;43.080;25.628;2022-08-20T13:49:37;-20710.25;;;43.72;22.57
7058;BME280;3570;43.080;25.628;2022-08-20T13:52:21;-20780.34;;;46.22;21.22
7058;BME280;3570;43.080;25.628;2022-08-20T13:55:07;-20802.00;;;47.00;20.23
7058;BME280;3570;43.080;25.628;2022-08-20T13:57:52;-20853.41;;;48.84;19.10
7058;BME280;3570;43.080;25.628;2022-08-20T14:00:36;-20876.13;;;49.65;18.03
7058;BME280;3570;43.080;25.628;2022-08-20T14:03:20;-20881.88;;;49.86;17.99
7058;BME280;3570;43.080;25.628;2022-08-20T14:06:06;-20882.28;;;49.87;17.33
7058;BME280;3570;43.080;25.628;2022-08-20T14:08:51;-20889.69;;;50.14;17.28
7058;BME280;3570;43.080;25.628;2022-08-20T14:11:35;-20889.28;;;50.13;17.24
7058;BME280;3570;43.080;25.628;2022-08-20T14:14:19;-20886.19;;;50.02;17.17
7058;BME280;3570;43.080;25.628;2022-08-20T14:17:24;-20912.38;;;50.96;17.04
7058;BME280;3570;43.080;25.628;2022-08-20T14:20:13;-20915.16;;;51.06;16.86
7058;BME280;3570;43.080;25.628;2022-08-20T14:22:58;-20900.75;;;50.54;17.17
7058;BME280;3570;43.080;25.628;2022-08-20T14:25:46;-20934.31;;;51.75;15.81
7058;BME280;3570;43.080;25.628;2022-08-20T14:28:31;-20938.78;;;51.91;16.24
7058;BME280;3570;43.080;25.628;2022-08-20T14:31:15;-20951.88;;;52.38;15.72
7058;BME280;3570;43.080;25.628;2022-08-20T14:33:59;-20929.00;;;51.55;16.67
7058;BME280;3570;43.080;25.628;2022-08-20T14:36:43;-20929.13;;;51.56;15.78
7058;BME280;3570;43.080;25.628;2022-08-20T14:39:27;-20931.50;;;51.64;16.23
7058;BME280;3570;43.080;25.628;2022-08-20T14:42:11;-20908.03;;;50.80;16.62
7058;BME280;3570;43.080;25.628;2022-08-20T14:44:57;-20916.69;;;51.11;15.78